sensor_id;sensor_type;location;lat;lon;timestamp;temperature;humidity
20744;DHT22;56303;52.160;-0.428;2024-01-06T00:01:24;7.80;99.90
20744;DHT22;56303;52.160;-0.428;2024-01-06T00:03:52;7.70;99.90
20744;DHT22;56303;52.160;-0.428;2024-01-06T00:06:20;7.60;99.90
20744;DHT22;56303;52.160;-0.428;2024-01-06T00:08:48;7.80;99.90
20744;DHT22;56303;52.160;-0.428;2024-01-06T00:11:24;7.70;99.90
20744;DHT22;56303;52.160;-0.428;2024-01-06T00:13:56;7.90;99.90
20744;DHT22;56303;52.160;-0.428;2024-01-06T00:16:34;7.90;99.90
20744;DHT22;56303;52.160;-0.428;2024-01-06T00:19:08;8.00;99.90
20744;DHT22;56303;52.160;-0.428;2024-01-06T00:22:11;7.80;99.90
20744;DHT22;56303;52.160;-0.428;2024-01-06T00:25:10;7.50;99.90
20744;DHT22;56303;52.160;-0.428;2024-01-06T00:27:52;7.90;99.90
20744;DHT22;56303;52.160;-0.428;2024-01-06T00:31:15;8.10;99.90
20744;DHT22;56303;52.160;-0.428;2024-01-06T00:34:06;8.00;99.90
20744;DHT22;56303;52.160;-0.428;2024-01-06T00:36:51;8.00;99.90
20744;DHT22;56303;52.160;-0.428;2024-01-06T00:39:22;8.00;99.90
20744;DHT22;56303;52.160;-0.428;2024-01-06T00:41:49;6.90;99.90
20744;DHT22;56303;52.160;-0.428;2024-01-06T00:44:17;8.40;99.90
20744;DHT22;56303;52.160;-0.428;2024-01-06T00:46:45;8.20;99.90
20744;DHT22;56303;52.160;-0.428;2024-01-06T00:49:12;7.40;99.90
20744;DHT22;56303;52.160;-0.428;2024-01-06T00:51:40;8.10;99.90
20744;DHT22;56303;52.160;-0.428;2024-01-06T00:54:07;8.20;99.90
20744;DHT22;56303;52.160;-0.428;2024-01-06T00:56:34;8.40;99.90
20744;DHT22;56303;52.160;-0.428;2024-01-06T00:59:02;8.40;99.90
20744;DHT22;56303;52.160;-0.428;2024-01-06T01:01:29;6.90;99.90
20744;DHT22;56303;52.160;-0.428;2024-01-06T01:03:56;8.40;99.90
20744;DHT22;56303;52.160;-0.428;2024-01-06T01:06:24;8.60;99.90
20744;DHT22;56303;52.160;-0.428;2024-01-06T01:08:52;8.80;99.90
20744;DHT22;56303;52.160;-0.428;2024-01-06T01:11:19;8.60;99.90
20744;DHT22;56303;52.160;-0.428;2024-01-06T01:13:47;8.70;99.90
20744;DHT22;56303;52.160;-0.428;2024-01-06T01:16:14;8.60;99.90
20744;DHT22;56303;52.160;-0.428;2024-01-06T01:18:41;8.50;99.90
20744;DHT22;56303;52.160;-0.428;2024-01-06T01:21:09;8.60;99.90
20744;DHT22;56303;52.160;-0.428;2024-01-06T01:23:36;8.10;99.90
20744;DHT22;56303;52.160;-0.428;2024-01-06T01:26:04;7.50;99.90
20744;DHT22;56303;52.160;-0.428;2024-01-06T01:28:31;8.50;99.90
20744;DHT22;56303;52.160;-0.428;2024-01-06T01:30:58;8.60;99.90
20744;DHT22;56303;52.160;-0.428;2024-01-06T01:33:25;8.60;99.90
20744;DHT22;56303;52.160;-0.428;2024-01-06T01:35:53;8.40;99.90
20744;DHT22;56303;52.160;-0.428;2024-01-06T01:38:20;6.60;99.90
20744;DHT22;56303;52.160;-0.428;2024-01-06T01:40:48;8.00;99.90
20744;DHT22;56303;52.160;-0.428;2024-01-06T01:43:24;8.50;99.90
20744;DHT22;56303;52.160;-0.428;2024-01-06T01:45:54;8.40;99.90
20744;DHT22;56303;52.160;-0.428;2024-01-06T01:48:22;8.30;99.90
20744;DHT22;56303;52.160;-0.428;2024-01-06T01:50:53;7.90;99.90
20744;DHT22;56303;52.160;-0.428;2024-01-06T01:53:20;8.50;99.90
20744;DHT22;56303;52.160;-0.428;2024-01-06T01:55:48;8.60;99.90
20744;DHT22;56303;52.160;-0.428;2024-01-06T01:58:16;8.80;99.90
20744;DHT22;56303;52.160;-0.428;2024-01-06T02:00:43;8.80;99.90
20744;DHT22;56303;52.160;-0.428;2024-01-06T02:03:11;8.90;99.90
20744;DHT22;56303;52.160;-0.428;2024-01-06T02:05:40;9.10;99.90
20744;DHT22;56303;52.160;-0.428;2024-01-06T02:08:08;9.00;99.90
20744;DHT22;56303;52.160;-0.428;2024-01-06T02:10:35;8.70;99.90
20744;DHT22;56303;52.160;-0.428;2024-01-06T02:13:13;8.70;99.90
20744;DHT22;56303;52.160;-0.428;2024-01-06T02:15:40;8.80;99.90
20744;DHT22;56303;52.160;-0.428;2024-01-06T02:18:09;8.80;99.90
20744;DHT22;56303;52.160;-0.428;2024-01-06T02:20:37;8.80;99.90
20744;DHT22;56303;52.160;-0.428;2024-01-06T02:23:04;8.80;99.90
20744;DHT22;56303;52.160;-0.428;2024-01-06T02:25:31;8.80;99.90
20744;DHT22;56303;52.160;-0.428;2024-01-06T02:28:00;9.00;99.90
20744;DHT22;56303;52.160;-0.428;2024-01-06T02:30:27;9.00;99.90
20744;DHT22;56303;52.160;-0.428;2024-01-06T02:32:54;9.10;99.90
20744;DHT22;56303;52.160;-0.428;2024-01-06T02:35:21;9.00;99.90
20744;DHT22;56303;52.160;-0.428;2024-01-06T02:37:48;9.00;99.90
20744;DHT22;56303;52.160;-0.428;2024-01-06T02:40:15;9.00;99.90
20744;DHT22;56303;52.160;-0.428;2024-01-06T02:42:42;8.90;99.90
20744;DHT22;56303;52.160;-0.428;2024-01-06T02:45:09;8.90;99.90
20744;DHT22;56303;52.160;-0.428;2024-01-06T02:47:37;8.90;99.90
20744;DHT22;56303;52.160;-0.428;2024-01-06T02:50:05;8.80;99.90
20744;DHT22;56303;52.160;-0.428;2024-01-06T02:52:32;8.90;99.90
20744;DHT22;56303;52.160;-0.428;2024-01-06T02:54:59;8.80;99.90
20744;DHT22;56303;52.160;-0.428;2024-01-06T02:57:32;8.70;99.90
20744;DHT22;56303;52.160;-0.428;2024-01-06T03:00:00;8.80;99.90
20744;DHT22;56303;52.160;-0.428;2024-01-06T03:02:27;8.80;99.90
20744;DHT22;56303;52.160;-0.428;2024-01-06T03:04:54;8.80;99.90
20744;DHT22;56303;52.160;-0.428;2024-01-06T03:07:22;8.50;99.90
20744;DHT22;56303;52.160;-0.428;2024-01-06T03:09:49;8.70;99.90
20744;DHT22;56303;52.160;-0.428;2024-01-06T03:12:16;7.70;99.90
20744;DHT22;56303;52.160;-0.428;2024-01-06T03:14:43;8.60;99.90
20744;DHT22;56303;52.160;-0.428;2024-01-06T03:17:11;8.60;99.90
20744;DHT22;56303;52.160;-0.428;2024-01-06T03:19:46;8.30;99.90
20744;DHT22;56303;52.160;-0.428;2024-01-06T03:22:20;8.70;99.90
20744;DHT22;56303;52.160;-0.428;2024-01-06T03:24:48;8.60;99.90
20744;DHT22;56303;52.160;-0.428;2024-01-06T03:27:16;8.40;99.90
20744;DHT22;56303;52.160;-0.428;2024-01-06T03:29:44;8.60;99.90
20744;DHT22;56303;52.160;-0.428;2024-01-06T03:32:11;8.70;99.90
20744;DHT22;56303;52.160;-0.428;2024-01-06T03:34:40;8.70;99.90
20744;DHT22;56303;52.160;-0.428;2024-01-06T03:37:07;8.70;99.90
20744;DHT22;56303;52.160;-0.428;2024-01-06T03:39:36;8.60;99.90
20744;DHT22;56303;52.160;-0.428;2024-01-06T03:42:05;8.60;99.90
20744;DHT22;56303;52.160;-0.428;2024-01-06T03:44:35;8.50;99.90
20744;DHT22;56303;52.160;-0.428;2024-01-06T03:47:20;8.30;99.90
20744;DHT22;56303;52.160;-0.428;2024-01-06T03:50:07;8.50;99.90
20744;DHT22;56303;52.160;-0.428;2024-01-06T03:52:42;8.50;99.90
20744;DHT22;56303;52.160;-0.428;2024-01-06T03:55:11;8.50;99.90
20744;DHT22;56303;52.160;-0.428;2024-01-06T03:57:39;8.80;99.90
20744;DHT22;56303;52.160;-0.428;2024-01-06T04:00:06;8.80;99.90
20744;DHT22;56303;52.160;-0.428;2024-01-06T04:02:34;8.70;99.90
20744;DHT22;56303;52.160;-0.428;2024-01-06T04:05:02;7.00;99.90
20744;DHT22;56303;52.160;-0.428;2024-01-06T04:07:32;8.50;99.90
20744;DHT22;56303;52.160;-0.428;2024-01-06T04:09:59;8.40;99.90
20744;DHT22;56303;52.160;-0.428;2024-01-06T04:12:26;7.20;99.90
20744;DHT22;56303;52.160;-0.428;2024-01-06T04:14:54;8.20;99.90
20744;DHT22;56303;52.160;-0.428;2024-01-06T04:17:22;8.20;99.90
20744;DHT22;56303;52.160;-0.428;2024-01-06T04:19:49;8.30;99.90
20744;DHT22;56303;52.160;-0.428;2024-01-06T04:22:16;8.30;99.90
20744;DHT22;56303;52.160;-0.428;2024-01-06T04:24:44;8.40;99.90
20744;DHT22;56303;52.160;-0.428;2024-01-06T04:27:11;8.50;99.90
20744;DHT22;56303;52.160;-0.428;2024-01-06T04:29:41;8.70;99.90
20744;DHT22;56303;52.160;-0.428;2024-01-06T04:32:09;8.50;99.90
20744;DHT22;56303;52.160;-0.428;2024-01-06T04:34:36;8.70;99.90
20744;DHT22;56303;52.160;-0.428;2024-01-06T04:37:04;8.70;99.90
20744;DHT22;56303;52.160;-0.428;2024-01-06T04:39:31;9.70;99.90
20744;DHT22;56303;52.160;-0.428;2024-01-06T04:42:04;8.30;99.90
20744;DHT22;56303;52.160;-0.428;2024-01-06T04:44:45;8.50;99.90
20744;DHT22;56303;52.160;-0.428;2024-01-06T04:47:21;8.60;99.90
20744;DHT22;56303;52.160;-0.428;2024-01-06T04:49:49;8.50;99.90
20744;DHT22;56303;52.160;-0.428;2024-01-06T04:52:16;8.70;99.90
20744;DHT22;56303;52.160;-0.428;2024-01-06T04:54:44;8.80;99.90
20744;DHT22;56303;52.160;-0.428;2024-01-06T04:57:11;8.50;99.90
20744;DHT22;56303;52.160;-0.428;2024-01-06T04:59:38;8.60;99.90
20744;DHT22;56303;52.160;-0.428;2024-01-06T05:02:05;8.50;99.90
20744;DHT22;56303;52.160;-0.428;2024-01-06T05:04:33;9.60;99.90
20744;DHT22;56303;52.160;-0.428;2024-01-06T05:07:03;8.30;99.90
20744;DHT22;56303;52.160;-0.428;2024-01-06T05:09:34;8.10;99.90
20744;DHT22;56303;52.160;-0.428;2024-01-06T05:12:03;8.20;99.90
20744;DHT22;56303;52.160;-0.428;2024-01-06T05:14:47;7.90;99.90
20744;DHT22;56303;52.160;-0.428;2024-01-06T05:17:22;8.00;99.90
20744;DHT22;56303;52.160;-0.428;2024-01-06T05:20:00;8.00;99.90
20744;DHT22;56303;52.160;-0.428;2024-01-06T05:22:37;6.50;99.90
20744;DHT22;56303;52.160;-0.428;2024-01-06T05:25:11;7.90;99.90
20744;DHT22;56303;52.160;-0.428;2024-01-06T05:28:22;8.20;99.90
20744;DHT22;56303;52.160;-0.428;2024-01-06T05:31:01;8.20;99.90
20744;DHT22;56303;52.160;-0.428;2024-01-06T05:33:35;6.70;99.90
20744;DHT22;56303;52.160;-0.428;2024-01-06T05:36:05;8.40;99.90
20744;DHT22;56303;52.160;-0.428;2024-01-06T05:38:38;8.40;99.90
20744;DHT22;56303;52.160;-0.428;2024-01-06T05:41:06;8.00;99.90
20744;DHT22;56303;52.160;-0.428;2024-01-06T05:43:35;8.00;99.90
20744;DHT22;56303;52.160;-0.428;2024-01-06T05:46:07;8.30;99.90
20744;DHT22;56303;52.160;-0.428;2024-01-06T05:48:40;8.40;99.90
20744;DHT22;56303;52.160;-0.428;2024-01-06T05:51:09;8.50;99.90
20744;DHT22;56303;52.160;-0.428;2024-01-06T05:53:42;5.90;99.90
20744;DHT22;56303;52.160;-0.428;2024-01-06T05:56:21;8.20;99.90
20744;DHT22;56303;52.160;-0.428;2024-01-06T05:58:50;8.20;99.90
20744;DHT22;56303;52.160;-0.428;2024-01-06T06:01:18;8.10;99.90
20744;DHT22;56303;52.160;-0.428;2024-01-06T06:03:50;8.30;99.90
20744;DHT22;56303;52.160;-0.428;2024-01-06T06:06:25;8.20;99.90
20744;DHT22;56303;52.160;-0.428;2024-01-06T06:08:53;8.10;99.90
20744;DHT22;56303;52.160;-0.428;2024-01-06T06:11:24;8.40;99.90
20744;DHT22;56303;52.160;-0.428;2024-01-06T06:14:18;8.50;99.90
20744;DHT22;56303;52.160;-0.428;2024-01-06T06:17:00;8.70;99.90
20744;DHT22;56303;52.160;-0.428;2024-01-06T06:19:29;8.50;99.90
20744;DHT22;56303;52.160;-0.428;2024-01-06T06:21:56;8.50;99.90
20744;DHT22;56303;52.160;-0.428;2024-01-06T06:24:26;8.40;99.90
20744;DHT22;56303;52.160;-0.428;2024-01-06T06:26:56;8.40;99.90
20744;DHT22;56303;52.160;-0.428;2024-01-06T06:29:27;8.60;99.90
20744;DHT22;56303;52.160;-0.428;2024-01-06T06:31:56;8.30;99.90
20744;DHT22;56303;52.160;-0.428;2024-01-06T06:34:38;7.30;99.90
20744;DHT22;56303;52.160;-0.428;2024-01-06T06:37:07;7.90;99.90
20744;DHT22;56303;52.160;-0.428;2024-01-06T06:39:35;7.90;99.90
20744;DHT22;56303;52.160;-0.428;2024-01-06T06:42:03;7.80;99.90
20744;DHT22;56303;52.160;-0.428;2024-01-06T06:44:30;7.90;99.90
20744;DHT22;56303;52.160;-0.428;2024-01-06T06:46:57;8.10;99.90
20744;DHT22;56303;52.160;-0.428;2024-01-06T06:49:24;8.10;99.90
20744;DHT22;56303;52.160;-0.428;2024-01-06T06:51:51;8.20;99.90
20744;DHT22;56303;52.160;-0.428;2024-01-06T06:54:19;8.20;99.90
20744;DHT22;56303;52.160;-0.428;2024-01-06T06:56:46;8.30;99.90
20744;DHT22;56303;52.160;-0.428;2024-01-06T06:59:13;8.20;99.90
20744;DHT22;56303;52.160;-0.428;2024-01-06T07:01:41;8.10;99.90
20744;DHT22;56303;52.160;-0.428;2024-01-06T07:04:08;8.20;99.90
20744;DHT22;56303;52.160;-0.428;2024-01-06T07:06:35;8.30;99.90
20744;DHT22;56303;52.160;-0.428;2024-01-06T07:09:02;8.40;99.90
20744;DHT22;56303;52.160;-0.428;2024-01-06T07:11:31;8.40;99.90
20744;DHT22;56303;52.160;-0.428;2024-01-06T07:13:59;8.20;99.90
20744;DHT22;56303;52.160;-0.428;2024-01-06T07:16:43;8.30;99.90
20744;DHT22;56303;52.160;-0.428;2024-01-06T07:19:11;8.40;99.90
20744;DHT22;56303;52.160;-0.428;2024-01-06T07:21:49;8.40;99.90
20744;DHT22;56303;52.160;-0.428;2024-01-06T07:24:21;8.40;99.90
20744;DHT22;56303;52.160;-0.428;2024-01-06T07:26:49;8.30;99.90
20744;DHT22;56303;52.160;-0.428;2024-01-06T07:29:19;7.90;99.90
20744;DHT22;56303;52.160;-0.428;2024-01-06T07:31:56;8.50;99.90
20744;DHT22;56303;52.160;-0.428;2024-01-06T07:34:32;8.40;99.90
20744;DHT22;56303;52.160;-0.428;2024-01-06T07:37:55;8.60;99.90
20744;DHT22;56303;52.160;-0.428;2024-01-06T07:40:50;9.10;99.90
20744;DHT22;56303;52.160;-0.428;2024-01-06T07:43:36;8.70;99.90
20744;DHT22;56303;52.160;-0.428;2024-01-06T07:47:02;8.60;99.90
20744;DHT22;56303;52.160;-0.428;2024-01-06T07:50:43;8.60;99.90
20744;DHT22;56303;52.160;-0.428;2024-01-06T07:53:55;8.60;99.90
20744;DHT22;56303;52.160;-0.428;2024-01-06T07:56:22;8.70;99.90
20744;DHT22;56303;52.160;-0.428;2024-01-06T07:58:51;8.70;99.90
20744;DHT22;56303;52.160;-0.428;2024-01-06T08:01:18;8.70;99.90
20744;DHT22;56303;52.160;-0.428;2024-01-06T08:03:45;8.70;99.90
20744;DHT22;56303;52.160;-0.428;2024-01-06T08:06:20;8.60;99.90
20744;DHT22;56303;52.160;-0.428;2024-01-06T08:08:48;8.60;99.90
20744;DHT22;56303;52.160;-0.428;2024-01-06T08:11:14;8.40;99.90
20744;DHT22;56303;52.160;-0.428;2024-01-06T08:13:42;8.60;99.90
20744;DHT22;56303;52.160;-0.428;2024-01-06T08:16:09;8.70;99.90
20744;DHT22;56303;52.160;-0.428;2024-01-06T08:18:36;8.60;99.90
20744;DHT22;56303;52.160;-0.428;2024-01-06T08:21:04;8.80;99.90
20744;DHT22;56303;52.160;-0.428;2024-01-06T08:23:31;8.80;99.90
20744;DHT22;56303;52.160;-0.428;2024-01-06T08:25:58;9.00;99.90
20744;DHT22;56303;52.160;-0.428;2024-01-06T08:28:25;8.30;99.90
20744;DHT22;56303;52.160;-0.428;2024-01-06T08:30:52;8.60;99.90
20744;DHT22;56303;52.160;-0.428;2024-01-06T08:36:39;8.60;99.90
20744;DHT22;56303;52.160;-0.428;2024-01-06T08:39:28;8.70;99.90
20744;DHT22;56303;52.160;-0.428;2024-01-06T08:41:56;8.70;99.90
20744;DHT22;56303;52.160;-0.428;2024-01-06T08:44:32;8.70;99.90
20744;DHT22;56303;52.160;-0.428;2024-01-06T08:47:13;8.60;99.90
20744;DHT22;56303;52.160;-0.428;2024-01-06T08:49:40;8.40;99.90
20744;DHT22;56303;52.160;-0.428;2024-01-06T08:52:17;8.00;99.90
20744;DHT22;56303;52.160;-0.428;2024-01-06T08:54:54;8.50;99.90
20744;DHT22;56303;52.160;-0.428;2024-01-06T08:57:26;8.40;99.90
20744;DHT22;56303;52.160;-0.428;2024-01-06T08:59:55;7.90;99.90
20744;DHT22;56303;52.160;-0.428;2024-01-06T09:02:26;7.70;99.90
20744;DHT22;56303;52.160;-0.428;2024-01-06T09:04:53;8.80;99.90
20744;DHT22;56303;52.160;-0.428;2024-01-06T09:07:21;8.40;99.90
20744;DHT22;56303;52.160;-0.428;2024-01-06T09:09:48;8.00;99.90
20744;DHT22;56303;52.160;-0.428;2024-01-06T09:12:16;8.00;99.90
20744;DHT22;56303;52.160;-0.428;2024-01-06T09:14:43;8.70;99.90
20744;DHT22;56303;52.160;-0.428;2024-01-06T09:17:10;8.80;99.90
20744;DHT22;56303;52.160;-0.428;2024-01-06T09:19:39;8.40;99.90
20744;DHT22;56303;52.160;-0.428;2024-01-06T09:22:06;8.50;99.90
20744;DHT22;56303;52.160;-0.428;2024-01-06T09:24:35;8.70;99.90
20744;DHT22;56303;52.160;-0.428;2024-01-06T09:27:04;8.80;99.90
20744;DHT22;56303;52.160;-0.428;2024-01-06T09:29:31;8.50;99.90
20744;DHT22;56303;52.160;-0.428;2024-01-06T09:31:58;8.70;99.90
20744;DHT22;56303;52.160;-0.428;2024-01-06T09:34:25;8.80;99.90
20744;DHT22;56303;52.160;-0.428;2024-01-06T09:36:54;7.60;99.90
20744;DHT22;56303;52.160;-0.428;2024-01-06T09:39:21;8.60;99.90
20744;DHT22;56303;52.160;-0.428;2024-01-06T09:41:50;8.80;99.90
20744;DHT22;56303;52.160;-0.428;2024-01-06T09:44:24;8.70;99.90
20744;DHT22;56303;52.160;-0.428;2024-01-06T09:46:52;8.80;99.90
20744;DHT22;56303;52.160;-0.428;2024-01-06T09:49:23;8.80;99.90
20744;DHT22;56303;52.160;-0.428;2024-01-06T09:51:53;9.00;99.90
20744;DHT22;56303;52.160;-0.428;2024-01-06T09:54:30;7.60;99.90
20744;DHT22;56303;52.160;-0.428;2024-01-06T09:57:02;9.10;99.90
20744;DHT22;56303;52.160;-0.428;2024-01-06T09:59:32;9.10;99.90
20744;DHT22;56303;52.160;-0.428;2024-01-06T10:02:06;9.00;99.90
20744;DHT22;56303;52.160;-0.428;2024-01-06T10:04:34;9.10;99.90
20744;DHT22;56303;52.160;-0.428;2024-01-06T10:07:02;9.10;99.90
20744;DHT22;56303;52.160;-0.428;2024-01-06T10:09:30;8.90;99.90
20744;DHT22;56303;52.160;-0.428;2024-01-06T10:11:59;7.90;99.90
20744;DHT22;56303;52.160;-0.428;2024-01-06T10:14:26;8.90;99.90
20744;DHT22;56303;52.160;-0.428;2024-01-06T10:16:54;8.90;99.90
20744;DHT22;56303;52.160;-0.428;2024-01-06T10:19:23;8.80;99.90
20744;DHT22;56303;52.160;-0.428;2024-01-06T10:21:52;9.30;99.90
20744;DHT22;56303;52.160;-0.428;2024-01-06T10:24:21;9.00;99.90
20744;DHT22;56303;52.160;-0.428;2024-01-06T10:26:48;9.00;99.90
20744;DHT22;56303;52.160;-0.428;2024-01-06T10:29:42;9.20;99.90
20744;DHT22;56303;52.160;-0.428;2024-01-06T10:32:10;9.20;99.90
20744;DHT22;56303;52.160;-0.428;2024-01-06T10:34:42;11.00;99.90
20744;DHT22;56303;52.160;-0.428;2024-01-06T10:37:10;8.30;99.90
20744;DHT22;56303;52.160;-0.428;2024-01-06T10:39:37;9.00;99.90
20744;DHT22;56303;52.160;-0.428;2024-01-06T10:42:06;9.70;99.90
20744;DHT22;56303;52.160;-0.428;2024-01-06T10:44:33;9.40;99.90
20744;DHT22;56303;52.160;-0.428;2024-01-06T10:47:01;9.70;99.90
20744;DHT22;56303;52.160;-0.428;2024-01-06T10:49:30;9.50;99.90
20744;DHT22;56303;52.160;-0.428;2024-01-06T10:51:59;8.50;99.90
20744;DHT22;56303;52.160;-0.428;2024-01-06T10:54:28;9.50;99.90
20744;DHT22;56303;52.160;-0.428;2024-01-06T10:56:57;9.40;99.90
20744;DHT22;56303;52.160;-0.428;2024-01-06T10:59:28;9.30;99.90
20744;DHT22;56303;52.160;-0.428;2024-01-06T11:01:58;9.30;99.90
20744;DHT22;56303;52.160;-0.428;2024-01-06T11:04:26;10.50;99.90
20744;DHT22;56303;52.160;-0.428;2024-01-06T11:06:54;9.50;99.90
20744;DHT22;56303;52.160;-0.428;2024-01-06T11:09:27;9.30;99.90
20744;DHT22;56303;52.160;-0.428;2024-01-06T11:11:58;9.50;99.90
20744;DHT22;56303;52.160;-0.428;2024-01-06T11:14:27;9.40;99.90
20744;DHT22;56303;52.160;-0.428;2024-01-06T11:17:00;9.30;99.90
20744;DHT22;56303;52.160;-0.428;2024-01-06T11:22:27;9.30;99.90
20744;DHT22;56303;52.160;-0.428;2024-01-06T11:25:07;9.40;99.90
20744;DHT22;56303;52.160;-0.428;2024-01-06T11:27:36;11.20;99.90
20744;DHT22;56303;52.160;-0.428;2024-01-06T11:30:04;9.40;99.90
20744;DHT22;56303;52.160;-0.428;2024-01-06T11:32:34;9.50;99.90
20744;DHT22;56303;52.160;-0.428;2024-01-06T11:35:11;9.50;99.90
20744;DHT22;56303;52.160;-0.428;2024-01-06T11:42:52;8.80;99.90
20744;DHT22;56303;52.160;-0.428;2024-01-06T11:45:24;8.90;99.90
20744;DHT22;56303;52.160;-0.428;2024-01-06T11:47:56;9.40;99.90
20744;DHT22;56303;52.160;-0.428;2024-01-06T11:50:26;10.30;99.90
20744;DHT22;56303;52.160;-0.428;2024-01-06T11:52:56;9.30;99.90
20744;DHT22;56303;52.160;-0.428;2024-01-06T11:55:28;7.50;99.90
20744;DHT22;56303;52.160;-0.428;2024-01-06T11:58:04;8.80;99.90
20744;DHT22;56303;52.160;-0.428;2024-01-06T12:00:59;9.10;99.90
20744;DHT22;56303;52.160;-0.428;2024-01-06T12:04:08;9.20;99.90
20744;DHT22;56303;52.160;-0.428;2024-01-06T12:07:20;10.40;99.90
20744;DHT22;56303;52.160;-0.428;2024-01-06T12:10:13;9.00;99.90
20744;DHT22;56303;52.160;-0.428;2024-01-06T12:13:06;8.90;99.90
20744;DHT22;56303;52.160;-0.428;2024-01-06T12:15:44;9.10;99.90
20744;DHT22;56303;52.160;-0.428;2024-01-06T12:18:20;7.40;99.90
20744;DHT22;56303;52.160;-0.428;2024-01-06T12:20:54;8.50;99.90
20744;DHT22;56303;52.160;-0.428;2024-01-06T12:23:31;8.90;99.90
20744;DHT22;56303;52.160;-0.428;2024-01-06T12:26:03;8.80;99.90
20744;DHT22;56303;52.160;-0.428;2024-01-06T12:29:04;9.10;99.90
20744;DHT22;56303;52.160;-0.428;2024-01-06T12:31:41;9.30;99.90
20744;DHT22;56303;52.160;-0.428;2024-01-06T12:34:11;9.60;99.90
20744;DHT22;56303;52.160;-0.428;2024-01-06T12:36:44;10.10;99.90
20744;DHT22;56303;52.160;-0.428;2024-01-06T12:39:29;11.20;99.90
20744;DHT22;56303;52.160;-0.428;2024-01-06T12:41:56;11.10;99.90
20744;DHT22;56303;52.160;-0.428;2024-01-06T12:44:24;10.80;99.90
20744;DHT22;56303;52.160;-0.428;2024-01-06T12:46:51;10.80;99.90
20744;DHT22;56303;52.160;-0.428;2024-01-06T12:49:33;10.40;99.90
20744;DHT22;56303;52.160;-0.428;2024-01-06T12:52:18;9.60;99.90
20744;DHT22;56303;52.160;-0.428;2024-01-06T12:55:10;7.80;99.90
20744;DHT22;56303;52.160;-0.428;2024-01-06T12:57:38;8.60;99.90
20744;DHT22;56303;52.160;-0.428;2024-01-06T13:00:08;8.60;99.90
20744;DHT22;56303;52.160;-0.428;2024-01-06T13:02:38;8.10;99.90
20744;DHT22;56303;52.160;-0.428;2024-01-06T13:05:07;7.90;99.90
20744;DHT22;56303;52.160;-0.428;2024-01-06T13:07:36;8.50;99.90
20744;DHT22;56303;52.160;-0.428;2024-01-06T13:10:05;8.70;99.90
20744;DHT22;56303;52.160;-0.428;2024-01-06T13:12:34;9.10;99.90
20744;DHT22;56303;52.160;-0.428;2024-01-06T13:15:04;9.70;99.90
20744;DHT22;56303;52.160;-0.428;2024-01-06T13:17:32;9.70;99.90
20744;DHT22;56303;52.160;-0.428;2024-01-06T13:20:00;9.80;99.90
20744;DHT22;56303;52.160;-0.428;2024-01-06T13:22:28;9.40;99.90
20744;DHT22;56303;52.160;-0.428;2024-01-06T13:24:55;9.80;99.90
20744;DHT22;56303;52.160;-0.428;2024-01-06T13:27:23;10.00;99.90
20744;DHT22;56303;52.160;-0.428;2024-01-06T13:29:51;10.20;99.90
20744;DHT22;56303;52.160;-0.428;2024-01-06T13:32:19;9.90;99.90
20744;DHT22;56303;52.160;-0.428;2024-01-06T13:34:52;9.50;99.90
20744;DHT22;56303;52.160;-0.428;2024-01-06T13:37:24;9.30;99.90
20744;DHT22;56303;52.160;-0.428;2024-01-06T13:39:52;8.80;99.90
20744;DHT22;56303;52.160;-0.428;2024-01-06T13:42:20;9.00;99.90
20744;DHT22;56303;52.160;-0.428;2024-01-06T13:44:48;9.00;99.90
20744;DHT22;56303;52.160;-0.428;2024-01-06T13:47:16;9.30;99.90
20744;DHT22;56303;52.160;-0.428;2024-01-06T13:49:43;8.80;99.90
20744;DHT22;56303;52.160;-0.428;2024-01-06T13:52:11;8.40;99.90
20744;DHT22;56303;52.160;-0.428;2024-01-06T13:54:39;8.90;99.90
20744;DHT22;56303;52.160;-0.428;2024-01-06T13:57:06;8.30;99.90
20744;DHT22;56303;52.160;-0.428;2024-01-06T13:59:34;6.90;99.90
20744;DHT22;56303;52.160;-0.428;2024-01-06T14:02:06;7.20;99.90
20744;DHT22;56303;52.160;-0.428;2024-01-06T14:04:34;8.60;99.90
20744;DHT22;56303;52.160;-0.428;2024-01-06T14:07:02;8.60;99.90
20744;DHT22;56303;52.160;-0.428;2024-01-06T14:09:36;8.10;99.90
20744;DHT22;56303;52.160;-0.428;2024-01-06T14:12:03;8.50;99.90
20744;DHT22;56303;52.160;-0.428;2024-01-06T14:14:32;8.70;99.90
20744;DHT22;56303;52.160;-0.428;2024-01-06T14:16:59;8.70;99.90
20744;DHT22;56303;52.160;-0.428;2024-01-06T14:19:26;8.60;99.90
20744;DHT22;56303;52.160;-0.428;2024-01-06T14:21:54;8.10;99.90
20744;DHT22;56303;52.160;-0.428;2024-01-06T14:24:21;8.90;99.90
20744;DHT22;56303;52.160;-0.428;2024-01-06T14:26:54;8.80;99.90
20744;DHT22;56303;52.160;-0.428;2024-01-06T14:29:24;8.10;99.90
20744;DHT22;56303;52.160;-0.428;2024-01-06T14:31:52;9.10;99.90
20744;DHT22;56303;52.160;-0.428;2024-01-06T14:34:20;8.90;99.90
20744;DHT22;56303;52.160;-0.428;2024-01-06T14:36:48;8.90;99.90
20744;DHT22;56303;52.160;-0.428;2024-01-06T14:39:19;8.70;99.90
20744;DHT22;56303;52.160;-0.428;2024-01-06T14:41:50;7.90;99.90
20744;DHT22;56303;52.160;-0.428;2024-01-06T14:44:22;8.60;99.90
20744;DHT22;56303;52.160;-0.428;2024-01-06T14:46:53;8.80;99.90
20744;DHT22;56303;52.160;-0.428;2024-01-06T14:49:21;9.00;99.90
20744;DHT22;56303;52.160;-0.428;2024-01-06T14:51:49;9.10;99.90
20744;DHT22;56303;52.160;-0.428;2024-01-06T14:54:17;7.30;99.90
20744;DHT22;56303;52.160;-0.428;2024-01-06T14:56:46;9.00;99.90
20744;DHT22;56303;52.160;-0.428;2024-01-06T14:59:13;8.60;99.90
20744;DHT22;56303;52.160;-0.428;2024-01-06T15:01:44;9.40;99.90
20744;DHT22;56303;52.160;-0.428;2024-01-06T15:04:11;9.50;99.90
20744;DHT22;56303;52.160;-0.428;2024-01-06T15:06:40;9.70;99.90
20744;DHT22;56303;52.160;-0.428;2024-01-06T15:09:07;9.50;99.90
20744;DHT22;56303;52.160;-0.428;2024-01-06T15:11:35;9.60;99.90
20744;DHT22;56303;52.160;-0.428;2024-01-06T15:14:02;9.40;99.90
20744;DHT22;56303;52.160;-0.428;2024-01-06T15:16:35;9.40;99.90
20744;DHT22;56303;52.160;-0.428;2024-01-06T15:19:03;9.30;99.90
20744;DHT22;56303;52.160;-0.428;2024-01-06T15:21:30;9.00;99.90
20744;DHT22;56303;52.160;-0.428;2024-01-06T15:24:01;9.00;99.90
20744;DHT22;56303;52.160;-0.428;2024-01-06T15:26:28;8.90;99.90
20744;DHT22;56303;52.160;-0.428;2024-01-06T15:28:56;8.80;99.90
20744;DHT22;56303;52.160;-0.428;2024-01-06T15:31:25;8.50;99.90
20744;DHT22;56303;52.160;-0.428;2024-01-06T15:33:52;8.70;99.90
20744;DHT22;56303;52.160;-0.428;2024-01-06T15:36:19;8.90;99.90
20744;DHT22;56303;52.160;-0.428;2024-01-06T15:38:46;9.30;99.90
20744;DHT22;56303;52.160;-0.428;2024-01-06T15:41:13;9.00;99.90
20744;DHT22;56303;52.160;-0.428;2024-01-06T15:43:41;8.60;99.90
20744;DHT22;56303;52.160;-0.428;2024-01-06T15:46:08;8.80;99.90
20744;DHT22;56303;52.160;-0.428;2024-01-06T15:48:35;8.50;99.90
20744;DHT22;56303;52.160;-0.428;2024-01-06T15:51:03;8.60;99.90
20744;DHT22;56303;52.160;-0.428;2024-01-06T15:53:31;8.40;99.90
20744;DHT22;56303;52.160;-0.428;2024-01-06T15:55:58;8.30;99.90
20744;DHT22;56303;52.160;-0.428;2024-01-06T15:58:24;8.50;99.90
20744;DHT22;56303;52.160;-0.428;2024-01-06T16:00:51;8.20;99.90
20744;DHT22;56303;52.160;-0.428;2024-01-06T16:03:18;8.20;99.90
20744;DHT22;56303;52.160;-0.428;2024-01-06T16:05:46;8.10;99.90
20744;DHT22;56303;52.160;-0.428;2024-01-06T16:08:13;8.20;99.90